createdAt,value
2022-09-21T00:00:38.775Z,15.29
2022-09-21T00:01:40.352Z,15.28
2022-09-21T00:02:41.839Z,15.28
2022-09-21T00:03:43.491Z,15.26
2022-09-21T00:04:45.007Z,15.25
2022-09-21T00:05:46.466Z,15.25
2022-09-21T00:06:47.979Z,15.24
2022-09-21T00:07:49.795Z,15.22
2022-09-21T00:08:51.269Z,15.22
2022-09-21T00:09:52.702Z,15.22
2022-09-21T00:10:54.170Z,15.20
2022-09-21T00:11:58.281Z,15.20
2022-09-21T00:13:00.249Z,15.19
2022-09-21T00:14:04.409Z,15.18
2022-09-21T00:15:09.493Z,15.17
2022-09-21T00:16:10.959Z,15.15
2022-09-21T00:17:12.474Z,15.16
2022-09-21T00:18:14.091Z,15.15
2022-09-21T00:19:16.836Z,15.15
2022-09-21T00:20:19.499Z,15.12
2022-09-21T00:21:21.837Z,15.12
2022-09-21T00:22:23.344Z,15.11
2022-09-21T00:23:24.856Z,15.10
2022-09-21T00:24:26.355Z,15.09
2022-09-21T00:25:27.872Z,15.09
2022-09-21T00:26:29.418Z,15.08
2022-09-21T00:27:31.087Z,15.07
2022-09-21T00:28:32.571Z,15.06
2022-09-21T00:29:34.041Z,15.06
2022-09-21T00:30:35.511Z,15.05
2022-09-21T00:31:37.201Z,15.03
2022-09-21T00:32:39.557Z,15.04
2022-09-21T00:33:41.243Z,15.02
2022-09-21T00:34:42.673Z,15.02
2022-09-21T00:35:44.346Z,15.00
2022-09-21T00:36:46.217Z,15.00
2022-09-21T00:37:47.705Z,14.99
2022-09-21T00:38:49.699Z,14.98
2022-09-21T00:39:51.174Z,14.96
2022-09-21T00:40:52.835Z,14.96
2022-09-21T00:41:54.276Z,14.95
2022-09-21T00:43:11.078Z,14.93
2022-09-21T00:44:18.719Z,14.92
2022-09-21T00:45:22.968Z,14.93
2022-09-21T00:46:26.478Z,14.91
2022-09-21T00:47:28.940Z,14.91
2022-09-21T00:48:30.965Z,14.91
2022-09-21T00:49:32.530Z,14.91
2022-09-21T00:50:34.143Z,14.89
2022-09-21T00:51:36.052Z,14.88
2022-09-21T00:52:38.209Z,14.89
2022-09-21T00:53:39.693Z,14.88
2022-09-21T00:54:44.348Z,14.88
2022-09-21T00:55:49.940Z,14.87
2022-09-21T00:56:51.464Z,14.87
2022-09-21T00:57:54.548Z,14.86
2022-09-21T00:58:56.154Z,14.86
2022-09-21T00:59:58.079Z,14.85
2022-09-21T01:00:59.841Z,14.84
2022-09-21T01:02:01.585Z,14.84
2022-09-21T01:03:03.850Z,14.85
2022-09-21T01:04:07.010Z,14.83
2022-09-21T01:05:08.643Z,14.84
2022-09-21T01:06:10.146Z,14.80
2022-09-21T01:07:13.185Z,14.80
2022-09-21T01:08:15.365Z,14.79
2022-09-21T01:09:16.894Z,14.79
2022-09-21T01:10:18.430Z,14.77
2022-09-21T01:11:31.600Z,14.76
2022-09-21T01:12:42.409Z,14.75
2022-09-21T01:13:46.778Z,14.73
2022-09-21T01:14:57.521Z,14.72
2022-09-21T01:15:59.049Z,14.70
2022-09-21T01:17:03.715Z,14.68
2022-09-21T01:18:08.379Z,14.56
2022-09-21T01:19:10.165Z,14.65
2022-09-21T01:20:34.477Z,14.64
2022-09-21T01:21:38.156Z,14.62
2022-09-21T01:22:57.553Z,14.61
2022-09-21T01:24:17.826Z,14.59
2022-09-21T01:25:38.083Z,14.58
2022-09-21T01:26:58.339Z,14.55
2022-09-21T01:27:59.821Z,14.53
2022-09-21T01:29:12.616Z,14.51
2022-09-21T01:30:18.169Z,14.48
2022-09-21T01:31:23.084Z,14.47
2022-09-21T01:32:28.545Z,14.46
2022-09-21T01:33:31.852Z,14.44
2022-09-21T01:34:52.730Z,14.42
2022-09-21T01:35:57.975Z,14.41
2022-09-21T01:37:00.387Z,14.40
2022-09-21T01:38:03.162Z,14.38
2022-09-21T01:39:07.230Z,14.35
2022-09-21T01:40:11.445Z,14.35
2022-09-21T01:41:13.448Z,14.33
2022-09-21T01:42:15.319Z,14.32
2022-09-21T01:43:20.304Z,14.31
2022-09-21T01:44:22.802Z,14.29
2022-09-21T01:45:28.573Z,14.28
2022-09-21T01:46:30.614Z,14.27
2022-09-21T01:47:32.074Z,14.26
2022-09-21T01:48:35.200Z,14.26
2022-09-21T01:49:37.443Z,14.25
2022-09-21T01:50:40.782Z,14.23
2022-09-21T01:51:43.904Z,14.24
2022-09-21T01:52:45.339Z,14.21
2022-09-21T01:53:46.763Z,14.20
2022-09-21T01:55:08.514Z,14.20
2022-09-21T01:56:09.938Z,14.18
2022-09-21T01:57:11.744Z,14.17
2022-09-21T01:58:20.228Z,14.16
2022-09-21T01:59:24.211Z,14.13
2022-09-21T02:00:25.799Z,14.13
2022-09-21T02:01:27.461Z,14.11
2022-09-21T02:02:37.059Z,14.11
2022-09-21T02:03:49.569Z,14.10
2022-09-21T02:04:51.072Z,14.09
2022-09-21T03:22:33.053Z,13.07
2022-09-21T03:23:34.595Z,13.07
2022-09-21T03:24:48.133Z,13.06
2022-09-21T03:25:49.619Z,13.06
2022-09-21T03:26:51.358Z,13.05
2022-09-21T03:27:53.851Z,13.05
2022-09-21T03:28:55.643Z,13.06
2022-09-21T03:30:01.329Z,13.04
2022-09-21T03:31:03.639Z,13.04
2022-09-21T03:32:05.215Z,13.05
2022-09-21T03:33:06.716Z,13.04
2022-09-21T03:34:08.226Z,13.02
2022-09-21T03:35:09.786Z,13.02
2022-09-21T03:36:11.553Z,13.02
2022-09-21T03:37:13.022Z,13.01
2022-09-21T03:38:15.066Z,13.01
2022-09-21T03:39:16.494Z,13.00
2022-09-21T03:40:18.113Z,13.00
2022-09-21T03:41:19.683Z,12.99
2022-09-21T03:42:21.168Z,13.00
2022-09-21T03:43:22.634Z,13.00
2022-09-21T03:44:24.379Z,12.99
2022-09-21T03:45:27.199Z,13.00
2022-09-21T03:46:29.385Z,12.99
2022-09-21T03:47:30.938Z,12.98
2022-09-21T03:48:32.734Z,12.98
2022-09-21T03:49:35.044Z,12.96
2022-09-21T03:50:36.701Z,12.98
2022-09-21T03:51:39.461Z,12.97
2022-09-21T03:52:41.007Z,12.96
2022-09-21T03:53:42.452Z,12.96
2022-09-21T03:54:43.950Z,12.96
2022-09-21T03:55:45.386Z,12.95
2022-09-21T03:56:46.833Z,12.95
2022-09-21T03:57:48.362Z,12.94
2022-09-21T03:58:49.863Z,12.93
2022-09-21T03:59:52.091Z,12.94
2022-09-21T04:00:54.447Z,12.92
2022-09-21T04:01:55.886Z,12.92
2022-09-21T04:02:57.394Z,12.92
2022-09-21T04:03:59.267Z,12.91
2022-09-21T04:05:00.713Z,12.91
2022-09-21T04:06:08.246Z,12.90
2022-09-21T04:07:09.735Z,12.89
2022-09-21T04:08:11.934Z,12.89
2022-09-21T04:09:13.490Z,12.89
2022-09-21T04:10:16.407Z,12.88
2022-09-21T04:11:18.499Z,12.88
2022-09-21T04:12:23.025Z,12.88
2022-09-21T04:13:24.838Z,12.87
2022-09-21T04:14:26.327Z,12.85
2022-09-21T04:15:27.822Z,12.85
2022-09-21T04:16:29.308Z,12.83
2022-09-21T04:17:31.491Z,12.83
2022-09-21T04:18:32.972Z,12.83
2022-09-21T04:19:34.438Z,12.84
2022-09-21T04:20:35.907Z,12.84
2022-09-21T04:21:37.426Z,12.84
2022-09-21T04:22:42.676Z,12.85
2022-09-21T04:23:45.159Z,12.85
2022-09-21T04:24:46.643Z,12.85
2022-09-21T04:25:48.747Z,12.84
2022-09-21T04:26:50.219Z,12.86
2022-09-21T04:27:52.251Z,12.86
2022-09-21T04:28:53.920Z,12.87
2022-09-21T04:29:55.355Z,12.88
2022-09-21T04:30:56.830Z,12.88
2022-09-21T04:31:58.347Z,12.88
2022-09-21T04:33:00.169Z,12.89
2022-09-21T04:34:01.634Z,12.89
2022-09-21T04:35:03.111Z,12.89
2022-09-21T04:36:05.006Z,12.90
2022-09-21T04:37:08.240Z,12.91
2022-09-21T04:38:09.730Z,12.91
2022-09-21T04:39:11.182Z,12.91
2022-09-21T04:40:12.901Z,12.92
2022-09-21T04:41:14.670Z,12.94
2022-09-21T04:42:16.105Z,12.94
2022-09-21T04:43:22.042Z,12.94
2022-09-21T04:44:24.750Z,12.95
2022-09-21T04:45:26.222Z,12.95
2022-09-21T04:46:27.693Z,12.97
2022-09-21T04:47:29.922Z,12.98
2022-09-21T04:48:31.386Z,13.00
2022-09-21T04:49:32.857Z,12.99
2022-09-21T04:50:34.311Z,13.00
2022-09-21T04:51:37.769Z,13.00
2022-09-21T04:52:39.423Z,13.01
2022-09-21T04:53:41.914Z,13.01
2022-09-21T04:54:43.370Z,13.01
2022-09-21T04:55:45.270Z,13.02
2022-09-21T04:56:46.708Z,13.01
2022-09-21T04:57:48.196Z,13.02
2022-09-21T04:58:49.707Z,13.02
2022-09-21T04:59:51.262Z,13.02
2022-09-21T05:00:52.809Z,13.02
2022-09-21T05:01:54.389Z,13.02
2022-09-21T05:02:55.873Z,13.02
2022-09-21T05:04:02.411Z,13.00
2022-09-21T05:05:04.013Z,13.00
2022-09-21T05:06:05.609Z,13.00
2022-09-21T05:07:07.087Z,13.00
2022-09-21T05:08:08.510Z,12.99
2022-09-21T05:09:28.405Z,12.98
2022-09-21T05:10:30.474Z,12.99
2022-09-21T05:11:31.923Z,12.98
2022-09-21T05:12:33.640Z,12.99
2022-09-21T05:13:35.147Z,12.97
2022-09-21T05:14:36.666Z,12.98
2022-09-21T05:15:39.408Z,12.97
2022-09-21T05:16:40.946Z,12.98
2022-09-21T05:17:42.483Z,12.98
2022-09-21T05:18:44.064Z,12.99
2022-09-21T05:19:45.513Z,12.98
2022-09-21T05:20:53.525Z,13.00
2022-09-21T05:21:55.050Z,13.01
2022-09-21T05:22:59.251Z,13.00
2022-09-21T05:24:00.734Z,13.00
2022-09-21T05:25:02.179Z,12.98
2022-09-21T05:26:03.720Z,13.01
2022-09-21T05:27:05.282Z,13.01
2022-09-21T05:28:06.986Z,13.01
2022-09-21T05:29:08.653Z,13.01
2022-09-21T05:30:10.703Z,13.01
2022-09-21T05:31:18.706Z,13.00
2022-09-21T05:32:25.002Z,13.01
2022-09-21T05:33:27.073Z,13.01
2022-09-21T05:34:47.074Z,13.02
2022-09-21T05:36:07.463Z,13.02
2022-09-21T05:37:10.501Z,13.04
2022-09-21T05:38:18.294Z,13.05
2022-09-21T05:39:19.851Z,13.06
2022-09-21T05:40:21.409Z,13.06
2022-09-21T05:41:23.206Z,13.06
2022-09-21T05:42:24.770Z,13.07
2022-09-21T05:43:26.377Z,13.07
2022-09-21T05:44:27.967Z,13.08
2022-09-21T05:45:29.577Z,13.08
2022-09-21T05:46:41.457Z,13.11
2022-09-21T05:47:43.027Z,13.11
2022-09-21T05:48:47.820Z,13.12
2022-09-21T05:49:51.879Z,13.12
2022-09-21T05:51:16.787Z,13.13
2022-09-21T05:52:44.295Z,13.12
2022-09-21T05:53:50.455Z,13.13
2022-09-21T05:55:07.380Z,13.15
2022-09-21T05:56:15.578Z,13.17
2022-09-21T05:57:27.419Z,13.18
2022-09-21T05:58:35.851Z,13.20
2022-09-21T05:59:48.597Z,13.22
2022-09-21T06:00:58.992Z,13.23
2022-09-21T06:02:18.536Z,13.25
2022-09-21T06:03:32.375Z,13.25
2022-09-21T06:04:34.103Z,13.27
2022-09-21T06:05:35.847Z,13.28
2022-09-21T06:06:37.290Z,13.29
2022-09-21T06:07:38.927Z,13.30
2022-09-21T06:08:40.387Z,13.33
2022-09-21T06:09:43.291Z,13.35
2022-09-21T06:10:45.303Z,13.39
2022-09-21T06:11:47.215Z,13.41
2022-09-21T06:12:48.735Z,13.43
2022-09-21T06:13:50.168Z,13.46
2022-09-21T06:14:51.673Z,13.48
2022-09-21T06:15:53.785Z,13.51
2022-09-21T06:16:55.325Z,13.53
2022-09-21T06:17:57.752Z,13.55
2022-09-21T06:18:59.176Z,13.57
2022-09-21T06:20:00.774Z,13.60
2022-09-21T06:21:02.429Z,13.62
2022-09-21T06:22:03.918Z,13.66
2022-09-21T06:23:06.294Z,13.67
2022-09-21T06:24:07.881Z,13.70
2022-09-21T06:25:09.460Z,13.72
2022-09-21T06:26:11.183Z,13.73
2022-09-21T06:27:12.606Z,13.76
2022-09-21T06:28:14.142Z,13.79
2022-09-21T06:29:15.595Z,13.82
2022-09-21T06:30:17.034Z,13.85
2022-09-21T06:31:18.524Z,13.87
2022-09-21T06:32:20.902Z,13.90
2022-09-21T06:33:23.621Z,13.91
2022-09-21T06:34:25.187Z,13.97
2022-09-21T06:35:27.166Z,13.99
2022-09-21T06:36:28.690Z,14.01
2022-09-21T06:37:30.105Z,14.05
2022-09-21T06:38:31.971Z,14.07
2022-09-21T06:39:33.525Z,14.10
2022-09-21T06:40:36.108Z,14.12
2022-09-21T06:41:37.717Z,14.17
2022-09-21T06:42:44.688Z,14.20
2022-09-21T06:43:46.263Z,14.24
2022-09-21T06:44:47.821Z,14.29
2022-09-21T06:45:53.111Z,14.32
2022-09-21T06:46:54.667Z,14.35
2022-09-21T06:47:56.150Z,14.39
2022-09-21T06:48:57.670Z,14.41
2022-09-21T06:49:59.450Z,14.47
2022-09-21T06:51:04.515Z,14.50
2022-09-21T06:52:06.837Z,14.52
2022-09-21T06:53:08.282Z,14.56
2022-09-21T06:54:09.883Z,14.57
2022-09-21T06:55:11.326Z,14.62
2022-09-21T06:56:12.794Z,14.65
2022-09-21T06:57:14.930Z,14.68
2022-09-21T06:58:16.404Z,14.72
2022-09-21T06:59:18.113Z,14.75
2022-09-21T07:00:19.618Z,14.79
2022-09-21T07:01:21.309Z,14.83
2022-09-21T07:02:22.882Z,14.86
2022-09-21T07:03:25.391Z,14.90
2022-09-21T07:04:28.462Z,14.94
2022-09-21T07:05:30.001Z,14.97
2022-09-21T07:06:31.526Z,15.00
2022-09-21T07:07:33.055Z,15.06
2022-09-21T07:10:06.885Z,15.11
2022-09-21T07:11:09.010Z,15.14
2022-09-21T07:12:10.429Z,15.18
2022-09-21T07:13:11.911Z,15.21
2022-09-21T07:14:14.607Z,15.24
2022-09-21T07:15:16.233Z,15.27
2022-09-21T07:16:18.747Z,15.30
2022-09-21T07:17:20.203Z,15.35
2022-09-21T07:18:21.832Z,15.39
2022-09-21T07:19:23.353Z,15.42
2022-09-21T07:20:24.875Z,15.45
2022-09-21T07:21:26.865Z,15.50
2022-09-21T07:22:28.994Z,15.53
2022-09-21T07:23:30.507Z,15.56
2022-09-21T07:24:31.990Z,15.61
2022-09-21T07:25:34.274Z,15.66
2022-09-21T07:26:37.230Z,15.71
2022-09-21T07:27:38.787Z,15.76
2022-09-21T07:28:40.230Z,15.81
2022-09-21T07:29:42.711Z,15.85
2022-09-21T07:30:44.200Z,15.89
2022-09-21T07:31:45.679Z,15.94
2022-09-21T07:32:47.470Z,15.99
2022-09-21T07:33:48.934Z,16.05
2022-09-21T07:34:50.409Z,16.11
2022-09-21T07:35:56.698Z,16.14
2022-09-21T07:36:58.135Z,16.20
2022-09-21T07:38:00.294Z,16.26
2022-09-21T07:39:03.094Z,16.33
2022-09-21T07:40:06.164Z,16.38
2022-09-21T07:41:08.097Z,16.43
2022-09-21T07:42:09.555Z,16.46
2022-09-21T07:43:11.081Z,16.52
2022-09-21T07:44:12.508Z,16.57
2022-09-21T07:45:13.961Z,16.63
2022-09-21T07:46:15.506Z,16.68
2022-09-21T07:47:17.008Z,16.72
2022-09-21T07:48:18.447Z,16.76
2022-09-21T07:49:20.069Z,16.83
2022-09-21T07:50:21.656Z,16.87
2022-09-21T07:51:23.643Z,16.91
2022-09-21T07:52:25.111Z,16.99
2022-09-21T07:53:26.578Z,17.07
2022-09-21T07:54:28.095Z,17.13
2022-09-21T07:55:29.620Z,17.20
2022-09-21T07:56:31.086Z,17.25
2022-09-21T07:57:51.330Z,17.28
2022-09-21T07:59:08.098Z,17.31
2022-09-21T08:00:10.108Z,17.41
2022-09-21T08:01:14.453Z,17.47
2022-09-21T08:02:16.113Z,17.56
2022-09-21T08:03:17.574Z,17.63
2022-09-21T08:04:19.031Z,17.71
2022-09-21T08:05:20.528Z,17.79
2022-09-21T08:06:22.102Z,17.86
2022-09-21T08:07:23.540Z,17.95
2022-09-21T08:08:25.752Z,18.02
2022-09-21T08:09:27.180Z,18.11
2022-09-21T08:10:29.973Z,18.16
2022-09-21T08:11:31.658Z,18.23
2022-09-21T08:12:33.155Z,18.32
2022-09-21T08:13:34.674Z,18.37
2022-09-21T08:14:36.231Z,18.45
2022-09-21T08:15:49.410Z,18.53
2022-09-21T08:16:51.553Z,18.65
2022-09-21T08:17:56.926Z,18.74
2022-09-21T08:18:58.466Z,18.81
2022-09-21T08:20:00.199Z,18.91
2022-09-21T08:21:01.637Z,19.00
2022-09-21T08:22:03.242Z,19.06
2022-09-21T08:23:05.025Z,19.14
2022-09-21T08:24:06.586Z,19.25
2022-09-21T08:25:08.187Z,19.33
2022-09-21T08:26:19.067Z,19.47
2022-09-21T08:27:20.574Z,19.60
2022-09-21T08:28:22.068Z,19.67
2022-09-21T08:29:24.025Z,19.77
2022-09-21T08:30:27.956Z,19.86
2022-09-21T08:31:30.407Z,19.99
2022-09-21T08:32:49.904Z,20.12
2022-09-21T08:33:52.844Z,20.29
2022-09-21T08:34:54.440Z,20.39
2022-09-21T08:35:56.183Z,20.52
2022-09-21T08:36:57.651Z,20.62
2022-09-21T08:37:59.165Z,20.75
2022-09-21T08:39:00.600Z,20.88
2022-09-21T08:40:03.141Z,21.01
2022-09-21T08:41:14.098Z,21.11
2022-09-21T08:42:30.498Z,21.27
2022-09-21T08:43:34.187Z,21.43
2022-09-21T08:44:39.761Z,21.55
2022-09-21T08:45:42.274Z,21.68
2022-09-21T08:46:43.852Z,21.78
2022-09-21T08:47:46.876Z,21.90
2022-09-21T08:48:56.322Z,22.00
2022-09-21T08:49:58.467Z,22.14
2022-09-21T08:51:01.206Z,22.28
2022-09-21T08:52:03.551Z,22.39
2022-09-21T08:53:06.540Z,22.49
2022-09-21T08:54:12.600Z,22.58
2022-09-21T08:55:17.917Z,22.61
2022-09-21T08:56:33.058Z,22.71
2022-09-21T08:57:47.198Z,22.90
2022-09-21T08:58:48.715Z,22.99
2022-09-21T08:59:50.668Z,23.08
2022-09-21T09:00:56.023Z,23.20
2022-09-21T09:02:04.870Z,23.35
2022-09-21T09:03:09.055Z,23.51
2022-09-21T09:04:22.110Z,23.58
2022-09-21T09:05:42.054Z,23.72
2022-09-21T09:06:52.830Z,23.90
2022-09-21T09:08:12.857Z,24.03
2022-09-21T09:09:30.047Z,24.15
2022-09-21T09:10:37.482Z,24.31
2022-09-21T09:11:57.411Z,24.44
2022-09-21T09:13:17.991Z,24.58
2022-09-21T09:14:31.701Z,24.73
2022-09-21T09:15:42.379Z,24.86
2022-09-21T09:16:43.826Z,25.01
2022-09-21T09:17:48.371Z,25.06
2022-09-21T09:18:53.139Z,25.12
2022-09-21T09:19:56.466Z,25.22
2022-09-21T09:20:58.815Z,25.31
2022-09-21T09:22:00.276Z,25.37
2022-09-21T09:23:20.898Z,25.47
2022-09-21T09:24:33.247Z,25.60
2022-09-21T09:25:38.075Z,25.76
2022-09-21T09:26:57.901Z,25.89
2022-09-21T09:27:59.680Z,25.97
2022-09-21T09:29:02.126Z,26.03
2022-09-21T09:30:06.563Z,26.17
2022-09-21T09:31:12.942Z,26.32
2022-09-21T09:32:15.191Z,26.45
2022-09-21T09:33:18.341Z,26.52
2022-09-21T09:34:29.387Z,26.59
2022-09-21T09:35:36.681Z,26.65
2022-09-21T09:36:57.773Z,26.78
2022-09-21T09:38:03.784Z,26.85
2022-09-21T09:39:05.991Z,26.95
2022-09-21T09:40:08.675Z,27.02
2022-09-21T09:41:19.378Z,27.08
2022-09-21T09:42:30.124Z,27.22
2022-09-21T09:43:37.356Z,27.34
2022-09-21T09:44:41.483Z,27.43
2022-09-21T09:45:45.143Z,27.55
2022-09-21T09:46:52.646Z,27.73
2022-09-21T09:48:07.859Z,27.87
2022-09-21T09:49:13.007Z,27.88
2022-09-21T09:50:20.458Z,27.87
2022-09-21T09:51:22.194Z,27.99
2022-09-21T09:52:23.697Z,28.11
2022-09-21T09:53:25.492Z,28.20
2022-09-21T09:54:27.475Z,28.29
2022-09-21T09:55:32.936Z,28.32
2022-09-21T09:56:34.431Z,28.38
2022-09-21T09:57:35.895Z,28.39
2022-09-21T09:58:39.446Z,28.36
2022-09-21T09:59:45.122Z,28.40
2022-09-21T10:00:47.170Z,28.50
2022-09-21T10:01:58.138Z,28.62
2022-09-21T10:02:59.652Z,28.79
2022-09-21T10:04:05.198Z,28.89
2022-09-21T10:05:06.818Z,28.85
2022-09-21T10:06:12.778Z,28.88
2022-09-21T10:07:20.007Z,28.96
2022-09-21T10:08:36.841Z,28.99
2022-09-21T10:09:38.297Z,28.95
2022-09-21T10:10:42.750Z,29.00
2022-09-21T10:11:44.192Z,28.98
2022-09-21T10:12:46.361Z,28.91
2022-09-21T10:13:47.972Z,29.04
2022-09-21T10:14:49.919Z,29.14
2022-09-21T10:15:53.930Z,29.28
2022-09-21T10:16:55.714Z,29.26
2022-09-21T10:17:58.090Z,29.23
2022-09-21T10:19:01.548Z,29.23
2022-09-21T10:20:04.177Z,29.23
2022-09-21T10:21:08.430Z,29.25
2022-09-21T10:22:15.178Z,29.26
2022-09-21T10:23:16.642Z,29.27
2022-09-21T10:24:23.361Z,29.46
2022-09-21T10:25:24.859Z,29.51
2022-09-21T10:26:31.027Z,29.53
2022-09-21T10:27:35.610Z,29.69
2022-09-21T10:28:37.100Z,29.78
2022-09-21T10:29:39.991Z,29.82
2022-09-21T10:30:41.834Z,29.84
2022-09-21T10:32:01.415Z,29.86
2022-09-21T10:33:03.168Z,29.82
2022-09-21T10:34:06.364Z,29.87
2022-09-21T10:35:07.979Z,29.87
2022-09-21T10:36:21.374Z,29.94
2022-09-21T10:37:24.547Z,30.00
2022-09-21T10:38:29.051Z,30.01
2022-09-21T10:39:33.703Z,30.04
2022-09-21T10:40:38.307Z,30.08
2022-09-21T10:41:39.856Z,30.09
2022-09-21T10:42:41.957Z,30.11
2022-09-21T10:43:44.479Z,30.10
2022-09-21T10:44:46.577Z,30.18
2022-09-21T10:45:52.787Z,30.20
2022-09-21T10:47:56.697Z,30.44
2022-09-21T10:48:58.146Z,30.50
2022-09-21T10:50:00.751Z,30.51
2022-09-21T10:51:02.186Z,30.48
2022-09-21T10:52:03.671Z,30.53
2022-09-21T10:53:10.856Z,30.48
2022-09-21T10:54:14.131Z,30.46
2022-09-21T10:55:16.579Z,30.38
2022-09-21T10:56:21.050Z,30.34
2022-09-21T10:57:23.443Z,30.30
2022-09-21T10:58:24.915Z,30.34
2022-09-21T10:59:27.519Z,30.42
2022-09-21T11:00:35.338Z,30.47
2022-09-21T11:01:36.857Z,30.45
2022-09-21T11:02:39.098Z,30.56
2022-09-21T11:03:51.378Z,30.57
2022-09-21T11:04:53.812Z,30.57
2022-09-21T11:05:55.799Z,30.65
2022-09-21T11:06:58.891Z,30.75
2022-09-21T11:08:02.878Z,30.61
2022-09-21T11:09:09.101Z,30.46
2022-09-21T11:10:21.447Z,30.33
2022-09-21T11:11:30.297Z,30.27
2022-09-21T11:12:38.119Z,30.07
2022-09-21T11:13:41.158Z,30.01
2022-09-21T11:14:51.295Z,30.04
2022-09-21T11:15:52.905Z,29.98
2022-09-21T11:16:55.894Z,29.93
2022-09-21T11:18:00.569Z,29.89
2022-09-21T11:19:05.914Z,29.87
2022-09-21T11:20:16.218Z,29.65
2022-09-21T11:21:20.742Z,29.44
2022-09-21T11:22:31.625Z,29.34
2022-09-21T11:23:59.050Z,29.28
2022-09-21T11:25:00.645Z,29.19
2022-09-21T11:26:22.315Z,29.16
2022-09-21T11:27:42.410Z,29.08
2022-09-21T11:28:47.334Z,28.88
2022-09-21T11:30:03.067Z,28.73
2022-09-21T11:31:07.570Z,28.65
2022-09-21T11:32:17.116Z,28.50
2022-09-21T11:33:38.890Z,28.49
2022-09-21T11:34:40.625Z,28.41
2022-09-21T11:35:58.674Z,28.39
2022-09-21T11:37:00.098Z,28.28
2022-09-21T11:38:11.378Z,28.26
2022-09-21T11:39:33.072Z,28.25
2022-09-21T11:40:43.781Z,28.23
2022-09-21T11:41:50.454Z,28.20
2022-09-21T11:42:56.143Z,28.16
2022-09-21T11:44:17.435Z,28.14
2022-09-21T11:45:26.310Z,28.03
2022-09-21T11:46:27.775Z,27.96
2022-09-21T11:47:41.463Z,27.89
2022-09-21T11:48:48.822Z,27.84
2022-09-21T11:50:07.880Z,27.82
2022-09-21T11:51:38.702Z,27.79
2022-09-21T11:52:47.412Z,27.79
2022-09-21T11:53:58.251Z,27.78
2022-09-21T11:55:08.403Z,27.72
2022-09-21T11:56:09.890Z,27.75
2022-09-21T11:57:24.256Z,27.77
2022-09-21T11:58:31.327Z,27.79
2022-09-21T11:59:51.306Z,27.83
2022-09-21T12:01:01.541Z,27.84
2022-09-21T12:02:14.883Z,27.88
2022-09-21T12:03:16.460Z,27.91
2022-09-21T12:04:36.138Z,27.90
2022-09-21T12:05:37.840Z,27.92
2022-09-21T12:06:45.511Z,27.88
2022-09-21T12:08:02.263Z,27.88
2022-09-21T12:09:06.589Z,27.88
2022-09-21T12:10:26.848Z,27.90
2022-09-21T12:11:44.403Z,27.83
2022-09-21T12:12:51.760Z,27.77
2022-09-21T12:13:56.357Z,27.71
2022-09-21T12:15:18.751Z,27.62
2022-09-21T12:16:23.458Z,27.51
2022-09-21T12:17:27.734Z,27.51
2022-09-21T12:18:34.469Z,27.47
2022-09-21T12:19:41.995Z,27.44
2022-09-21T12:20:49.690Z,27.36
2022-09-21T12:21:53.308Z,27.38
2022-09-21T12:23:01.741Z,27.38
2022-09-21T12:24:04.447Z,27.39
2022-09-21T12:25:13.202Z,27.41
2022-09-21T12:26:16.243Z,27.43
2022-09-21T12:27:31.585Z,27.45
2022-09-21T12:28:39.246Z,27.43
2022-09-21T12:29:47.559Z,27.43
2022-09-21T12:30:50.286Z,27.36
2022-09-21T12:32:11.968Z,27.23
2022-09-21T12:33:14.078Z,27.34
2022-09-21T12:34:22.628Z,27.31
2022-09-21T12:35:39.333Z,27.30
2022-09-21T12:36:46.040Z,27.30
2022-09-21T12:37:49.587Z,27.29
2022-09-21T12:38:51.003Z,27.29
2022-09-21T12:39:56.178Z,27.25
2022-09-21T12:41:05.238Z,27.20
2022-09-21T12:42:09.444Z,27.17
2022-09-21T12:43:21.013Z,27.17
2022-09-21T12:44:35.952Z,27.14
2022-09-21T12:45:48.528Z,27.11
2022-09-21T12:46:55.829Z,27.02
2022-09-21T12:48:00.315Z,26.99
2022-09-21T12:49:01.926Z,26.99
2022-09-21T12:50:05.902Z,26.99
2022-09-21T12:51:27.102Z,26.93
2022-09-21T12:52:28.574Z,26.93
2022-09-21T12:53:30.628Z,26.93
2022-09-21T12:54:41.441Z,26.95
2022-09-21T12:55:53.786Z,26.97
2022-09-21T12:57:42.587Z,26.97
2022-09-21T12:58:59.586Z,26.97
2022-09-21T13:00:04.121Z,26.91
2022-09-21T13:01:06.246Z,26.91
2022-09-21T13:02:24.600Z,26.91
2022-09-21T13:03:29.479Z,26.92
2022-09-21T13:04:41.790Z,26.93
2022-09-21T13:05:47.986Z,26.93
2022-09-21T13:07:08.672Z,26.90
2022-09-21T13:08:10.843Z,26.87
2022-09-21T13:09:12.744Z,26.90
2022-09-21T13:10:15.766Z,26.90
2022-09-21T13:11:21.491Z,26.82
2022-09-21T13:12:24.071Z,26.85
2022-09-21T13:13:27.903Z,26.83
2022-09-21T13:14:29.731Z,26.86
2022-09-21T13:15:31.897Z,26.84
2022-09-21T13:16:34.675Z,26.86
2022-09-21T13:17:36.678Z,26.88
2022-09-21T13:18:38.672Z,26.89
2022-09-21T13:19:40.106Z,26.90
2022-09-21T13:20:41.904Z,26.88
2022-09-21T13:21:44.239Z,26.89
2022-09-21T13:22:46.099Z,26.89
2022-09-21T13:24:00.761Z,26.87
2022-09-21T13:25:03.880Z,26.85
2022-09-21T13:26:06.250Z,26.84
2022-09-21T13:27:08.107Z,26.81
2022-09-21T13:28:13.055Z,26.83
2022-09-21T13:29:17.595Z,26.81
2022-09-21T13:30:30.785Z,26.79
2022-09-21T13:31:43.050Z,26.78
2022-09-21T13:32:50.916Z,26.74
2022-09-21T13:34:08.779Z,26.75
2022-09-21T13:35:30.487Z,26.75
2022-09-21T13:36:33.394Z,26.71
2022-09-21T13:37:34.959Z,26.67
2022-09-21T13:38:42.457Z,26.63
2022-09-21T13:39:43.976Z,26.60
2022-09-21T13:40:49.573Z,26.55
2022-09-21T13:42:02.730Z,26.52
2022-09-21T13:43:17.410Z,26.50
2022-09-21T13:44:38.307Z,26.49
2022-09-21T13:45:39.901Z,26.45
2022-09-21T13:46:42.907Z,26.43
2022-09-21T13:47:47.686Z,26.43
2022-09-21T13:48:52.165Z,26.44
2022-09-21T13:49:57.185Z,26.38
2022-09-21T13:51:02.768Z,26.38
2022-09-21T13:52:08.503Z,26.36
2022-09-21T13:53:16.135Z,26.37
2022-09-21T13:54:17.933Z,26.34
2022-09-21T13:55:29.348Z,26.33
2022-09-21T13:56:33.484Z,26.33
2022-09-21T13:57:39.498Z,26.33
2022-09-21T13:58:42.384Z,26.32
2022-09-21T13:59:44.363Z,26.26
2022-09-21T14:00:56.262Z,26.25
2022-09-21T14:01:58.138Z,26.24
2022-09-21T14:03:04.443Z,26.22
2022-09-21T14:04:15.251Z,26.20
2022-09-21T14:05:16.770Z,26.18
2022-09-21T14:06:34.550Z,26.19
2022-09-21T14:07:36.300Z,26.14
2022-09-21T14:08:48.808Z,26.14
2022-09-21T14:09:53.834Z,26.11
2022-09-21T14:11:08.104Z,26.08
2022-09-21T14:12:19.225Z,26.05
2022-09-21T14:13:25.465Z,26.01
2022-09-21T14:14:31.174Z,25.98
2022-09-21T14:15:34.408Z,25.95
2022-09-21T14:16:39.993Z,25.92
2022-09-21T14:17:41.568Z,25.90
2022-09-21T14:18:45.423Z,25.88
2022-09-21T14:19:46.846Z,25.87
2022-09-21T14:21:20.574Z,25.86
2022-09-21T14:22:26.591Z,25.85
2022-09-21T14:23:28.767Z,25.82
2022-09-21T14:24:39.275Z,25.80
2022-09-21T14:25:47.910Z,25.78
2022-09-21T14:26:52.851Z,25.75
2022-09-21T14:27:54.378Z,25.71
2022-09-21T14:28:55.871Z,25.65
2022-09-21T14:30:05.919Z,25.64
2022-09-21T14:31:16.474Z,25.59
2022-09-21T14:32:19.178Z,25.56
2022-09-21T14:33:20.621Z,25.50
2022-09-21T14:34:23.993Z,25.47
2022-09-21T14:35:30.283Z,25.35
2022-09-21T14:36:41.856Z,25.42
2022-09-21T14:37:52.115Z,25.39
2022-09-21T14:38:55.055Z,25.37
2022-09-21T14:39:56.644Z,25.34
2022-09-21T14:41:00.598Z,25.31
2022-09-21T14:42:04.695Z,25.30
2022-09-21T14:43:10.436Z,25.29
2022-09-21T14:44:18.956Z,25.21
2022-09-21T14:45:22.074Z,25.17
2022-09-21T14:46:45.201Z,25.15
2022-09-21T14:47:47.482Z,25.13
2022-09-21T14:49:08.007Z,25.09
2022-09-21T14:50:17.527Z,25.00
2022-09-21T14:51:21.530Z,24.96
2022-09-21T14:52:32.185Z,24.93
2022-09-21T14:53:55.772Z,24.94
2022-09-21T14:55:09.276Z,24.88
2022-09-21T14:56:31.033Z,24.88
2022-09-21T14:57:45.659Z,24.87
2022-09-21T14:58:47.071Z,24.84
2022-09-21T15:00:14.823Z,24.84
2022-09-21T15:01:36.091Z,24.84
2022-09-21T15:02:37.534Z,24.84
2022-09-21T15:03:55.777Z,24.82
2022-09-21T15:05:03.025Z,24.80
2022-09-21T15:06:41.225Z,24.80
2022-09-21T15:08:05.039Z,24.76
2022-09-21T15:09:31.370Z,24.71
2022-09-21T15:10:55.911Z,24.69
2022-09-21T15:11:59.946Z,24.67
2022-09-21T15:13:03.958Z,24.63
2022-09-21T15:14:24.008Z,24.61
2022-09-21T15:15:42.566Z,24.57
2022-09-21T15:16:45.783Z,24.56
2022-09-21T15:17:59.735Z,24.55
2022-09-21T15:19:20.104Z,24.55
2022-09-21T15:20:23.376Z,24.55
2022-09-21T15:21:29.286Z,24.54